sensor_id;sensor_type;location;lat;lon;timestamp;temperature;humidity
1429;DHT22;708;51.442;7.016;2023-11-21T00:01:17;9.80;99.90
1429;DHT22;708;51.442;7.016;2023-11-21T00:03:46;9.90;99.90
1429;DHT22;708;51.442;7.016;2023-11-21T00:06:12;10.00;99.90
1429;DHT22;708;51.442;7.016;2023-11-21T00:08:40;10.10;99.90
1429;DHT22;708;51.442;7.016;2023-11-21T00:11:06;10.20;99.90
1429;DHT22;708;51.442;7.016;2023-11-21T00:13:33;10.30;99.90
1429;DHT22;708;51.442;7.016;2023-11-21T00:16:00;10.30;99.90
1429;DHT22;708;51.442;7.016;2023-11-21T00:18:27;10.40;99.90
1429;DHT22;708;51.442;7.016;2023-11-21T00:20:55;10.40;99.90
1429;DHT22;708;51.442;7.016;2023-11-21T00:23:24;10.50;99.90
1429;DHT22;708;51.442;7.016;2023-11-21T00:25:51;10.50;99.90
1429;DHT22;708;51.442;7.016;2023-11-21T00:28:18;10.50;99.90
1429;DHT22;708;51.442;7.016;2023-11-21T00:30:45;10.60;99.90
1429;DHT22;708;51.442;7.016;2023-11-21T00:33:12;10.60;99.90
1429;DHT22;708;51.442;7.016;2023-11-21T00:35:39;10.60;99.90
1429;DHT22;708;51.442;7.016;2023-11-21T00:38:07;10.70;99.90
1429;DHT22;708;51.442;7.016;2023-11-21T00:40:35;10.70;99.90
1429;DHT22;708;51.442;7.016;2023-11-21T00:43:01;10.70;99.90
1429;DHT22;708;51.442;7.016;2023-11-21T00:45:28;10.70;99.90
1429;DHT22;708;51.442;7.016;2023-11-21T00:47:55;10.70;99.90
1429;DHT22;708;51.442;7.016;2023-11-21T00:50:23;10.70;99.90
1429;DHT22;708;51.442;7.016;2023-11-21T00:52:50;10.60;99.90
1429;DHT22;708;51.442;7.016;2023-11-21T00:55:19;10.70;99.90
1429;DHT22;708;51.442;7.016;2023-11-21T00:57:46;10.70;99.90
1429;DHT22;708;51.442;7.016;2023-11-21T01:00:13;10.60;99.90
1429;DHT22;708;51.442;7.016;2023-11-21T01:02:42;10.70;99.90
1429;DHT22;708;51.442;7.016;2023-11-21T01:05:10;10.70;99.90
1429;DHT22;708;51.442;7.016;2023-11-21T01:07:36;10.70;99.90
1429;DHT22;708;51.442;7.016;2023-11-21T01:10:03;10.80;99.90
1429;DHT22;708;51.442;7.016;2023-11-21T01:12:34;10.80;99.90
1429;DHT22;708;51.442;7.016;2023-11-21T01:15:01;10.90;99.90
1429;DHT22;708;51.442;7.016;2023-11-21T01:17:29;10.90;99.90
1429;DHT22;708;51.442;7.016;2023-11-21T01:19:56;11.00;99.90
1429;DHT22;708;51.442;7.016;2023-11-21T01:22:23;11.00;99.90
1429;DHT22;708;51.442;7.016;2023-11-21T01:24:51;11.00;99.90
1429;DHT22;708;51.442;7.016;2023-11-21T01:27:17;11.10;99.90
1429;DHT22;708;51.442;7.016;2023-11-21T01:29:45;11.10;99.90
1429;DHT22;708;51.442;7.016;2023-11-21T01:32:12;11.10;99.90
1429;DHT22;708;51.442;7.016;2023-11-21T01:34:39;11.10;99.90
1429;DHT22;708;51.442;7.016;2023-11-21T01:37:06;11.20;99.90
1429;DHT22;708;51.442;7.016;2023-11-21T01:39:33;11.20;99.90
1429;DHT22;708;51.442;7.016;2023-11-21T01:41:59;11.20;99.90
1429;DHT22;708;51.442;7.016;2023-11-21T01:44:26;11.20;99.90
1429;DHT22;708;51.442;7.016;2023-11-21T01:46:55;11.20;99.90
1429;DHT22;708;51.442;7.016;2023-11-21T01:49:23;11.20;99.90
1429;DHT22;708;51.442;7.016;2023-11-21T01:51:50;11.20;99.90
1429;DHT22;708;51.442;7.016;2023-11-21T01:54:18;11.20;99.90
1429;DHT22;708;51.442;7.016;2023-11-21T01:56:46;11.20;99.90
1429;DHT22;708;51.442;7.016;2023-11-21T01:59:18;11.30;99.90
1429;DHT22;708;51.442;7.016;2023-11-21T02:01:46;11.30;99.90
1429;DHT22;708;51.442;7.016;2023-11-21T02:04:14;11.30;99.90
1429;DHT22;708;51.442;7.016;2023-11-21T02:06:41;11.30;99.90
1429;DHT22;708;51.442;7.016;2023-11-21T02:09:08;11.30;99.90
1429;DHT22;708;51.442;7.016;2023-11-21T02:11:35;11.40;99.90
1429;DHT22;708;51.442;7.016;2023-11-21T02:14:04;11.40;99.90
1429;DHT22;708;51.442;7.016;2023-11-21T02:16:33;11.40;99.90
1429;DHT22;708;51.442;7.016;2023-11-21T02:19:01;11.40;99.90
1429;DHT22;708;51.442;7.016;2023-11-21T02:21:30;11.30;99.90
1429;DHT22;708;51.442;7.016;2023-11-21T02:23:58;11.30;99.90
1429;DHT22;708;51.442;7.016;2023-11-21T02:26:26;11.30;99.90
1429;DHT22;708;51.442;7.016;2023-11-21T02:28:53;11.30;99.90
1429;DHT22;708;51.442;7.016;2023-11-21T02:31:20;11.30;99.90
1429;DHT22;708;51.442;7.016;2023-11-21T02:33:48;11.20;99.90
1429;DHT22;708;51.442;7.016;2023-11-21T02:36:15;11.20;99.90
1429;DHT22;708;51.442;7.016;2023-11-21T02:38:41;11.20;99.90
1429;DHT22;708;51.442;7.016;2023-11-21T02:41:09;11.20;99.90
1429;DHT22;708;51.442;7.016;2023-11-21T02:43:36;11.20;99.90
1429;DHT22;708;51.442;7.016;2023-11-21T02:46:04;11.20;99.90
1429;DHT22;708;51.442;7.016;2023-11-21T02:48:31;11.20;99.90
1429;DHT22;708;51.442;7.016;2023-11-21T02:50:58;11.20;99.90
1429;DHT22;708;51.442;7.016;2023-11-21T02:53:24;11.20;99.90
1429;DHT22;708;51.442;7.016;2023-11-21T02:55:51;11.20;99.90
1429;DHT22;708;51.442;7.016;2023-11-21T02:58:19;11.20;99.90
1429;DHT22;708;51.442;7.016;2023-11-21T03:00:46;11.20;99.90
1429;DHT22;708;51.442;7.016;2023-11-21T03:03:13;11.20;99.90
1429;DHT22;708;51.442;7.016;2023-11-21T03:05:40;11.20;99.90
1429;DHT22;708;51.442;7.016;2023-11-21T03:08:07;11.20;99.90
1429;DHT22;708;51.442;7.016;2023-11-21T03:10:33;11.20;99.90
1429;DHT22;708;51.442;7.016;2023-11-21T03:13:01;11.20;99.90
1429;DHT22;708;51.442;7.016;2023-11-21T03:15:29;11.30;99.90
1429;DHT22;708;51.442;7.016;2023-11-21T03:17:58;11.30;99.90
1429;DHT22;708;51.442;7.016;2023-11-21T03:20:25;11.20;99.90
1429;DHT22;708;51.442;7.016;2023-11-21T03:22:51;11.20;99.90
1429;DHT22;708;51.442;7.016;2023-11-21T03:25:18;11.20;99.90
1429;DHT22;708;51.442;7.016;2023-11-21T03:27:45;11.20;99.90
1429;DHT22;708;51.442;7.016;2023-11-21T03:30:12;11.20;99.90
1429;DHT22;708;51.442;7.016;2023-11-21T03:32:40;11.20;99.90
1429;DHT22;708;51.442;7.016;2023-11-21T03:35:07;11.20;99.90
1429;DHT22;708;51.442;7.016;2023-11-21T03:37:34;11.20;99.90
1429;DHT22;708;51.442;7.016;2023-11-21T03:40:01;11.20;99.90
1429;DHT22;708;51.442;7.016;2023-11-21T03:42:29;11.20;99.90
1429;DHT22;708;51.442;7.016;2023-11-21T03:44:56;11.20;99.90
1429;DHT22;708;51.442;7.016;2023-11-21T03:47:22;11.20;99.90
1429;DHT22;708;51.442;7.016;2023-11-21T03:49:51;11.20;99.90
1429;DHT22;708;51.442;7.016;2023-11-21T03:52:18;11.20;99.90
1429;DHT22;708;51.442;7.016;2023-11-21T03:54:44;11.20;99.90
1429;DHT22;708;51.442;7.016;2023-11-21T03:57:12;11.20;99.90
1429;DHT22;708;51.442;7.016;2023-11-21T03:59:40;11.20;99.90
1429;DHT22;708;51.442;7.016;2023-11-21T04:02:06;11.20;99.90
1429;DHT22;708;51.442;7.016;2023-11-21T04:04:33;11.20;99.90
1429;DHT22;708;51.442;7.016;2023-11-21T04:07:02;11.20;99.90
1429;DHT22;708;51.442;7.016;2023-11-21T04:09:28;11.20;99.90
1429;DHT22;708;51.442;7.016;2023-11-21T04:11:55;11.20;99.90
1429;DHT22;708;51.442;7.016;2023-11-21T04:14:22;11.20;99.90
1429;DHT22;708;51.442;7.016;2023-11-21T04:16:49;11.20;99.90
1429;DHT22;708;51.442;7.016;2023-11-21T04:19:16;11.20;99.90
1429;DHT22;708;51.442;7.016;2023-11-21T04:21:42;11.10;99.90
1429;DHT22;708;51.442;7.016;2023-11-21T04:24:11;11.10;99.90
1429;DHT22;708;51.442;7.016;2023-11-21T04:26:38;11.10;99.90
1429;DHT22;708;51.442;7.016;2023-11-21T04:29:05;11.10;99.90
1429;DHT22;708;51.442;7.016;2023-11-21T04:31:32;11.10;99.90
1429;DHT22;708;51.442;7.016;2023-11-21T04:33:58;11.10;99.90
1429;DHT22;708;51.442;7.016;2023-11-21T04:36:25;11.10;99.90
1429;DHT22;708;51.442;7.016;2023-11-21T04:38:52;11.10;99.90
1429;DHT22;708;51.442;7.016;2023-11-21T04:41:20;11.00;99.90
1429;DHT22;708;51.442;7.016;2023-11-21T04:43:47;11.10;99.90
1429;DHT22;708;51.442;7.016;2023-11-21T04:46:14;11.00;99.90
1429;DHT22;708;51.442;7.016;2023-11-21T04:48:41;11.00;99.90
1429;DHT22;708;51.442;7.016;2023-11-21T04:51:08;11.00;99.90
1429;DHT22;708;51.442;7.016;2023-11-21T04:53:35;11.00;99.90
1429;DHT22;708;51.442;7.016;2023-11-21T04:56:02;11.00;99.90
1429;DHT22;708;51.442;7.016;2023-11-21T04:58:30;11.00;99.90
1429;DHT22;708;51.442;7.016;2023-11-21T05:00:57;11.00;99.90
1429;DHT22;708;51.442;7.016;2023-11-21T05:03:24;11.00;99.90
1429;DHT22;708;51.442;7.016;2023-11-21T05:05:51;11.00;99.90
1429;DHT22;708;51.442;7.016;2023-11-21T05:08:18;10.90;99.90
1429;DHT22;708;51.442;7.016;2023-11-21T05:10:46;10.90;99.90
1429;DHT22;708;51.442;7.016;2023-11-21T05:13:13;10.90;99.90
1429;DHT22;708;51.442;7.016;2023-11-21T05:15:44;10.90;99.90
1429;DHT22;708;51.442;7.016;2023-11-21T05:18:11;10.80;99.90
1429;DHT22;708;51.442;7.016;2023-11-21T05:20:39;10.80;99.90
1429;DHT22;708;51.442;7.016;2023-11-21T05:23:06;10.80;99.90
1429;DHT22;708;51.442;7.016;2023-11-21T05:25:33;10.80;99.90
1429;DHT22;708;51.442;7.016;2023-11-21T05:28:00;10.80;99.90
1429;DHT22;708;51.442;7.016;2023-11-21T05:30:28;10.80;99.90
1429;DHT22;708;51.442;7.016;2023-11-21T05:32:56;10.80;99.90
1429;DHT22;708;51.442;7.016;2023-11-21T05:35:23;10.90;99.90
1429;DHT22;708;51.442;7.016;2023-11-21T05:37:50;10.80;99.90
1429;DHT22;708;51.442;7.016;2023-11-21T05:40:16;10.80;99.90
1429;DHT22;708;51.442;7.016;2023-11-21T05:42:44;10.80;99.90
1429;DHT22;708;51.442;7.016;2023-11-21T05:45:11;10.80;99.90
1429;DHT22;708;51.442;7.016;2023-11-21T05:47:38;10.80;99.90
1429;DHT22;708;51.442;7.016;2023-11-21T05:50:08;10.80;99.90
1429;DHT22;708;51.442;7.016;2023-11-21T05:52:40;10.90;99.90
1429;DHT22;708;51.442;7.016;2023-11-21T05:55:07;10.90;99.90
1429;DHT22;708;51.442;7.016;2023-11-21T05:57:35;11.00;99.90
1429;DHT22;708;51.442;7.016;2023-11-21T06:00:04;11.00;99.90
1429;DHT22;708;51.442;7.016;2023-11-21T06:02:36;11.00;99.90
1429;DHT22;708;51.442;7.016;2023-11-21T06:05:04;11.00;99.90
1429;DHT22;708;51.442;7.016;2023-11-21T06:07:32;11.10;99.90
1429;DHT22;708;51.442;7.016;2023-11-21T06:09:59;11.00;99.90
1429;DHT22;708;51.442;7.016;2023-11-21T06:12:28;11.00;99.90
1429;DHT22;708;51.442;7.016;2023-11-21T06:14:55;11.00;99.90
1429;DHT22;708;51.442;7.016;2023-11-21T06:17:22;11.00;99.90
1429;DHT22;708;51.442;7.016;2023-11-21T06:19:50;11.00;99.90
1429;DHT22;708;51.442;7.016;2023-11-21T06:22:18;11.00;99.90
1429;DHT22;708;51.442;7.016;2023-11-21T06:24:46;10.90;99.90
1429;DHT22;708;51.442;7.016;2023-11-21T06:27:13;11.00;99.90
1429;DHT22;708;51.442;7.016;2023-11-21T06:29:49;10.90;99.90
1429;DHT22;708;51.442;7.016;2023-11-21T06:32:49;11.00;99.90
1429;DHT22;708;51.442;7.016;2023-11-21T06:35:16;11.00;99.90
1429;DHT22;708;51.442;7.016;2023-11-21T06:37:43;11.00;99.90
1429;DHT22;708;51.442;7.016;2023-11-21T06:40:14;11.00;99.90
1429;DHT22;708;51.442;7.016;2023-11-21T06:42:41;11.10;99.90
1429;DHT22;708;51.442;7.016;2023-11-21T06:45:10;11.00;99.90
1429;DHT22;708;51.442;7.016;2023-11-21T06:47:37;11.10;99.90
1429;DHT22;708;51.442;7.016;2023-11-21T06:50:05;11.00;99.90
1429;DHT22;708;51.442;7.016;2023-11-21T06:52:32;11.10;99.90
1429;DHT22;708;51.442;7.016;2023-11-21T06:54:59;11.10;99.90
1429;DHT22;708;51.442;7.016;2023-11-21T06:57:27;11.10;99.90
1429;DHT22;708;51.442;7.016;2023-11-21T06:59:54;11.10;99.90
1429;DHT22;708;51.442;7.016;2023-11-21T07:02:22;11.10;99.90
1429;DHT22;708;51.442;7.016;2023-11-21T07:04:49;11.10;99.90
1429;DHT22;708;51.442;7.016;2023-11-21T07:07:16;11.10;99.90
1429;DHT22;708;51.442;7.016;2023-11-21T07:09:43;11.10;99.90
1429;DHT22;708;51.442;7.016;2023-11-21T07:12:10;11.10;99.90
1429;DHT22;708;51.442;7.016;2023-11-21T07:14:38;11.00;99.90
1429;DHT22;708;51.442;7.016;2023-11-21T07:17:08;11.10;99.90
1429;DHT22;708;51.442;7.016;2023-11-21T07:19:35;11.10;99.90
1429;DHT22;708;51.442;7.016;2023-11-21T07:22:02;11.10;99.90
1429;DHT22;708;51.442;7.016;2023-11-21T07:24:31;11.20;99.90
1429;DHT22;708;51.442;7.016;2023-11-21T07:26:58;11.20;99.90
1429;DHT22;708;51.442;7.016;2023-11-21T07:29:24;11.30;99.90
1429;DHT22;708;51.442;7.016;2023-11-21T07:31:53;11.40;99.90
1429;DHT22;708;51.442;7.016;2023-11-21T07:34:20;11.40;99.90
1429;DHT22;708;51.442;7.016;2023-11-21T07:36:47;11.40;99.90
1429;DHT22;708;51.442;7.016;2023-11-21T07:39:13;11.40;99.90
1429;DHT22;708;51.442;7.016;2023-11-21T07:41:41;11.40;99.90
1429;DHT22;708;51.442;7.016;2023-11-21T07:44:14;11.40;99.90
1429;DHT22;708;51.442;7.016;2023-11-21T07:46:42;11.50;99.90
1429;DHT22;708;51.442;7.016;2023-11-21T07:49:11;11.50;99.90
1429;DHT22;708;51.442;7.016;2023-11-21T07:51:40;11.50;99.90
1429;DHT22;708;51.442;7.016;2023-11-21T07:54:07;11.50;99.90
1429;DHT22;708;51.442;7.016;2023-11-21T07:56:33;11.50;99.90
1429;DHT22;708;51.442;7.016;2023-11-21T07:59:00;11.50;99.90
1429;DHT22;708;51.442;7.016;2023-11-21T08:01:27;11.60;99.90
1429;DHT22;708;51.442;7.016;2023-11-21T08:03:54;11.70;99.90
1429;DHT22;708;51.442;7.016;2023-11-21T08:06:25;11.80;99.90
1429;DHT22;708;51.442;7.016;2023-11-21T08:08:52;11.90;99.90
1429;DHT22;708;51.442;7.016;2023-11-21T08:11:19;12.00;99.90
1429;DHT22;708;51.442;7.016;2023-11-21T08:13:46;12.10;99.90
1429;DHT22;708;51.442;7.016;2023-11-21T08:16:13;12.30;99.90
1429;DHT22;708;51.442;7.016;2023-11-21T08:18:40;12.30;99.90
1429;DHT22;708;51.442;7.016;2023-11-21T08:21:07;12.30;99.90
1429;DHT22;708;51.442;7.016;2023-11-21T08:23:36;12.40;99.90
1429;DHT22;708;51.442;7.016;2023-11-21T08:26:02;12.40;99.90
1429;DHT22;708;51.442;7.016;2023-11-21T08:28:29;12.40;99.90
1429;DHT22;708;51.442;7.016;2023-11-21T08:30:56;12.30;99.90
1429;DHT22;708;51.442;7.016;2023-11-21T08:33:23;12.40;99.90
1429;DHT22;708;51.442;7.016;2023-11-21T08:35:49;12.40;99.90
1429;DHT22;708;51.442;7.016;2023-11-21T08:38:16;12.40;99.90
1429;DHT22;708;51.442;7.016;2023-11-21T08:40:45;12.30;99.90
1429;DHT22;708;51.442;7.016;2023-11-21T08:43:12;12.30;99.90
1429;DHT22;708;51.442;7.016;2023-11-21T08:45:40;12.20;99.90
1429;DHT22;708;51.442;7.016;2023-11-21T08:48:07;12.20;99.90
1429;DHT22;708;51.442;7.016;2023-11-21T08:50:34;12.20;99.90
1429;DHT22;708;51.442;7.016;2023-11-21T08:53:01;12.20;99.90
1429;DHT22;708;51.442;7.016;2023-11-21T08:55:27;12.20;99.90
1429;DHT22;708;51.442;7.016;2023-11-21T08:57:55;12.20;99.90
1429;DHT22;708;51.442;7.016;2023-11-21T09:00:24;12.30;99.90
1429;DHT22;708;51.442;7.016;2023-11-21T09:02:51;12.30;99.90
1429;DHT22;708;51.442;7.016;2023-11-21T09:05:18;12.40;99.90
1429;DHT22;708;51.442;7.016;2023-11-21T09:07:46;12.50;99.90
1429;DHT22;708;51.442;7.016;2023-11-21T09:10:14;12.50;99.90
1429;DHT22;708;51.442;7.016;2023-11-21T09:12:41;12.50;99.90
1429;DHT22;708;51.442;7.016;2023-11-21T09:15:10;12.50;99.90
1429;DHT22;708;51.442;7.016;2023-11-21T09:17:37;12.60;99.90
1429;DHT22;708;51.442;7.016;2023-11-21T09:20:05;12.70;99.90
1429;DHT22;708;51.442;7.016;2023-11-21T09:22:35;12.70;99.90
1429;DHT22;708;51.442;7.016;2023-11-21T09:25:02;12.80;99.90
1429;DHT22;708;51.442;7.016;2023-11-21T09:27:30;12.80;99.90
1429;DHT22;708;51.442;7.016;2023-11-21T09:29:57;12.90;99.90
1429;DHT22;708;51.442;7.016;2023-11-21T09:32:26;12.90;99.90
1429;DHT22;708;51.442;7.016;2023-11-21T09:34:53;13.00;99.90
1429;DHT22;708;51.442;7.016;2023-11-21T09:37:21;13.00;99.90
1429;DHT22;708;51.442;7.016;2023-11-21T09:39:47;13.10;99.90
1429;DHT22;708;51.442;7.016;2023-11-21T09:42:17;13.10;99.90
1429;DHT22;708;51.442;7.016;2023-11-21T09:44:54;13.10;99.90
1429;DHT22;708;51.442;7.016;2023-11-21T09:47:28;13.20;99.90
1429;DHT22;708;51.442;7.016;2023-11-21T09:49:56;13.20;99.90
1429;DHT22;708;51.442;7.016;2023-11-21T09:52:27;13.10;99.90
1429;DHT22;708;51.442;7.016;2023-11-21T09:54:55;13.10;99.90
1429;DHT22;708;51.442;7.016;2023-11-21T09:57:23;13.10;99.90
1429;DHT22;708;51.442;7.016;2023-11-21T09:59:51;13.10;99.90
1429;DHT22;708;51.442;7.016;2023-11-21T10:02:22;13.10;99.90
1429;DHT22;708;51.442;7.016;2023-11-21T10:04:53;13.10;99.90
1429;DHT22;708;51.442;7.016;2023-11-21T10:07:20;13.20;99.90
1429;DHT22;708;51.442;7.016;2023-11-21T10:09:48;13.30;99.90
1429;DHT22;708;51.442;7.016;2023-11-21T10:12:15;13.40;99.90
1429;DHT22;708;51.442;7.016;2023-11-21T10:14:42;13.40;99.90
1429;DHT22;708;51.442;7.016;2023-11-21T10:17:10;13.50;99.90
1429;DHT22;708;51.442;7.016;2023-11-21T10:19:39;13.60;99.90
1429;DHT22;708;51.442;7.016;2023-11-21T10:22:07;13.60;99.90
1429;DHT22;708;51.442;7.016;2023-11-21T10:24:35;13.70;99.90
1429;DHT22;708;51.442;7.016;2023-11-21T10:27:03;13.70;99.90
1429;DHT22;708;51.442;7.016;2023-11-21T10:29:30;13.60;99.90
1429;DHT22;708;51.442;7.016;2023-11-21T10:32:02;13.60;99.90
1429;DHT22;708;51.442;7.016;2023-11-21T10:34:29;13.60;99.90
1429;DHT22;708;51.442;7.016;2023-11-21T10:36:56;13.70;99.90
1429;DHT22;708;51.442;7.016;2023-11-21T10:39:25;13.70;99.90
1429;DHT22;708;51.442;7.016;2023-11-21T10:41:56;13.70;99.90
1429;DHT22;708;51.442;7.016;2023-11-21T10:44:23;13.70;99.90
1429;DHT22;708;51.442;7.016;2023-11-21T10:46:51;13.70;99.90
1429;DHT22;708;51.442;7.016;2023-11-21T10:49:21;13.80;99.90
1429;DHT22;708;51.442;7.016;2023-11-21T10:51:50;13.80;99.90
1429;DHT22;708;51.442;7.016;2023-11-21T10:54:19;14.00;99.90
1429;DHT22;708;51.442;7.016;2023-11-21T10:56:49;14.20;99.90
1429;DHT22;708;51.442;7.016;2023-11-21T10:59:17;14.40;99.90
1429;DHT22;708;51.442;7.016;2023-11-21T11:01:46;14.50;99.90
1429;DHT22;708;51.442;7.016;2023-11-21T11:04:15;14.50;99.90
1429;DHT22;708;51.442;7.016;2023-11-21T11:06:44;14.60;99.90
1429;DHT22;708;51.442;7.016;2023-11-21T11:09:15;14.60;99.90
1429;DHT22;708;51.442;7.016;2023-11-21T11:11:42;14.60;99.90
1429;DHT22;708;51.442;7.016;2023-11-21T11:14:12;14.50;99.90
1429;DHT22;708;51.442;7.016;2023-11-21T11:16:39;14.50;99.90
1429;DHT22;708;51.442;7.016;2023-11-21T11:19:08;14.40;99.90
1429;DHT22;708;51.442;7.016;2023-11-21T11:21:45;14.40;99.90
1429;DHT22;708;51.442;7.016;2023-11-21T11:24:25;14.30;99.90
1429;DHT22;708;51.442;7.016;2023-11-21T11:26:58;14.30;99.90
1429;DHT22;708;51.442;7.016;2023-11-21T11:29:35;14.30;99.90
1429;DHT22;708;51.442;7.016;2023-11-21T11:32:12;14.30;99.90
1429;DHT22;708;51.442;7.016;2023-11-21T11:34:46;14.40;99.90
1429;DHT22;708;51.442;7.016;2023-11-21T11:37:16;14.50;99.90
1429;DHT22;708;51.442;7.016;2023-11-21T11:39:45;14.50;99.90
1429;DHT22;708;51.442;7.016;2023-11-21T11:42:13;14.50;99.90
1429;DHT22;708;51.442;7.016;2023-11-21T11:44:51;14.60;99.90
1429;DHT22;708;51.442;7.016;2023-11-21T11:47:24;14.60;99.90
1429;DHT22;708;51.442;7.016;2023-11-21T11:50:04;14.50;99.90
1429;DHT22;708;51.442;7.016;2023-11-21T11:52:40;14.50;99.90
1429;DHT22;708;51.442;7.016;2023-11-21T11:55:09;14.40;99.90
1429;DHT22;708;51.442;7.016;2023-11-21T11:57:41;14.40;99.90
1429;DHT22;708;51.442;7.016;2023-11-21T12:00:16;14.40;99.90
1429;DHT22;708;51.442;7.016;2023-11-21T12:02:47;14.40;99.90
1429;DHT22;708;51.442;7.016;2023-11-21T12:05:15;14.40;99.90
1429;DHT22;708;51.442;7.016;2023-11-21T12:07:45;14.40;99.90
1429;DHT22;708;51.442;7.016;2023-11-21T12:10:14;14.30;99.90
1429;DHT22;708;51.442;7.016;2023-11-21T12:12:44;14.20;99.90
1429;DHT22;708;51.442;7.016;2023-11-21T12:15:12;14.20;99.90
1429;DHT22;708;51.442;7.016;2023-11-21T12:17:42;14.00;99.90
1429;DHT22;708;51.442;7.016;2023-11-21T12:20:11;14.00;99.90
1429;DHT22;708;51.442;7.016;2023-11-21T12:22:45;13.90;99.90
1429;DHT22;708;51.442;7.016;2023-11-21T12:25:16;13.90;99.90
1429;DHT22;708;51.442;7.016;2023-11-21T12:27:44;13.80;99.90
1429;DHT22;708;51.442;7.016;2023-11-21T12:30:12;13.80;99.90
1429;DHT22;708;51.442;7.016;2023-11-21T12:32:43;13.70;99.90
1429;DHT22;708;51.442;7.016;2023-11-21T12:35:11;13.70;99.90
1429;DHT22;708;51.442;7.016;2023-11-21T12:37:39;13.60;99.90
1429;DHT22;708;51.442;7.016;2023-11-21T12:40:09;13.50;99.90
1429;DHT22;708;51.442;7.016;2023-11-21T12:42:38;13.40;99.90
1429;DHT22;708;51.442;7.016;2023-11-21T12:45:08;13.20;99.90
1429;DHT22;708;51.442;7.016;2023-11-21T12:47:41;13.10;99.90
1429;DHT22;708;51.442;7.016;2023-11-21T12:50:08;13.00;99.90
1429;DHT22;708;51.442;7.016;2023-11-21T12:52:43;12.80;99.90
1429;DHT22;708;51.442;7.016;2023-11-21T12:55:15;12.70;99.90
1429;DHT22;708;51.442;7.016;2023-11-21T12:57:43;12.60;99.90
1429;DHT22;708;51.442;7.016;2023-11-21T13:00:12;12.50;99.90
1429;DHT22;708;51.442;7.016;2023-11-21T13:02:54;12.40;99.90
1429;DHT22;708;51.442;7.016;2023-11-21T13:05:27;12.30;99.90
1429;DHT22;708;51.442;7.016;2023-11-21T13:07:55;12.30;99.90
1429;DHT22;708;51.442;7.016;2023-11-21T13:10:24;12.30;99.90
1429;DHT22;708;51.442;7.016;2023-11-21T13:12:56;12.40;99.90
1429;DHT22;708;51.442;7.016;2023-11-21T13:15:25;12.40;99.90
1429;DHT22;708;51.442;7.016;2023-11-21T13:17:58;12.50;99.90
1429;DHT22;708;51.442;7.016;2023-11-21T13:20:26;12.40;99.90
1429;DHT22;708;51.442;7.016;2023-11-21T13:22:59;12.30;99.90
1429;DHT22;708;51.442;7.016;2023-11-21T13:25:27;12.30;99.90
1429;DHT22;708;51.442;7.016;2023-11-21T13:27:54;12.30;99.90
1429;DHT22;708;51.442;7.016;2023-11-21T13:30:24;12.20;99.90
1429;DHT22;708;51.442;7.016;2023-11-21T13:32:53;12.10;99.90
1429;DHT22;708;51.442;7.016;2023-11-21T13:35:38;12.10;99.90
1429;DHT22;708;51.442;7.016;2023-11-21T13:38:17;12.00;99.90
1429;DHT22;708;51.442;7.016;2023-11-21T13:40:54;12.00;99.90
1429;DHT22;708;51.442;7.016;2023-11-21T13:43:22;11.90;99.90
1429;DHT22;708;51.442;7.016;2023-11-21T13:45:51;11.90;99.90
1429;DHT22;708;51.442;7.016;2023-11-21T13:48:26;11.90;99.90
1429;DHT22;708;51.442;7.016;2023-11-21T13:51:01;11.90;99.90
1429;DHT22;708;51.442;7.016;2023-11-21T13:53:37;11.80;99.90
1429;DHT22;708;51.442;7.016;2023-11-21T13:56:07;11.80;99.90
1429;DHT22;708;51.442;7.016;2023-11-21T13:58:39;11.80;99.90
1429;DHT22;708;51.442;7.016;2023-11-21T14:01:12;11.80;99.90
1429;DHT22;708;51.442;7.016;2023-11-21T14:03:58;11.80;99.90
1429;DHT22;708;51.442;7.016;2023-11-21T14:06:35;11.70;99.90
1429;DHT22;708;51.442;7.016;2023-11-21T14:09:13;11.70;99.90
1429;DHT22;708;51.442;7.016;2023-11-21T14:11:50;11.70;99.90
1429;DHT22;708;51.442;7.016;2023-11-21T14:14:19;11.60;99.90
1429;DHT22;708;51.442;7.016;2023-11-21T14:16:48;11.70;99.90
1429;DHT22;708;51.442;7.016;2023-11-21T14:19:16;11.70;99.90
1429;DHT22;708;51.442;7.016;2023-11-21T14:21:45;11.60;99.90
1429;DHT22;708;51.442;7.016;2023-11-21T14:24:14;11.50;99.90
1429;DHT22;708;51.442;7.016;2023-11-21T14:26:44;11.50;99.90
1429;DHT22;708;51.442;7.016;2023-11-21T14:29:16;11.40;99.90
1429;DHT22;708;51.442;7.016;2023-11-21T14:31:46;11.40;99.90
1429;DHT22;708;51.442;7.016;2023-11-21T14:34:13;11.40;99.90
1429;DHT22;708;51.442;7.016;2023-11-21T14:36:41;11.30;99.90
1429;DHT22;708;51.442;7.016;2023-11-21T14:39:12;11.30;99.90
1429;DHT22;708;51.442;7.016;2023-11-21T14:41:48;11.20;99.90
1429;DHT22;708;51.442;7.016;2023-11-21T14:44:17;11.20;99.90
1429;DHT22;708;51.442;7.016;2023-11-21T14:46:44;11.20;99.90
1429;DHT22;708;51.442;7.016;2023-11-21T14:49:16;11.20;99.90
1429;DHT22;708;51.442;7.016;2023-11-21T14:51:47;11.20;99.90
1429;DHT22;708;51.442;7.016;2023-11-21T14:54:27;11.10;99.90
1429;DHT22;708;51.442;7.016;2023-11-21T14:57:06;11.20;99.90
1429;DHT22;708;51.442;7.016;2023-11-21T14:59:42;11.20;99.90
1429;DHT22;708;51.442;7.016;2023-11-21T15:02:10;11.10;99.90
1429;DHT22;708;51.442;7.016;2023-11-21T15:04:45;11.10;99.90
1429;DHT22;708;51.442;7.016;2023-11-21T15:07:13;11.00;99.90
1429;DHT22;708;51.442;7.016;2023-11-21T15:09:40;11.10;99.90
1429;DHT22;708;51.442;7.016;2023-11-21T15:12:09;11.10;99.90
1429;DHT22;708;51.442;7.016;2023-11-21T15:14:44;11.10;99.90
1429;DHT22;708;51.442;7.016;2023-11-21T15:17:14;11.10;99.90
1429;DHT22;708;51.442;7.016;2023-11-21T15:19:48;11.00;99.90
1429;DHT22;708;51.442;7.016;2023-11-21T15:22:15;10.90;99.90
1429;DHT22;708;51.442;7.016;2023-11-21T15:24:43;10.90;99.90
1429;DHT22;708;51.442;7.016;2023-11-21T15:27:12;10.70;99.90
1429;DHT22;708;51.442;7.016;2023-11-21T15:29:39;10.70;99.90
1429;DHT22;708;51.442;7.016;2023-11-21T15:32:07;10.70;99.90
1429;DHT22;708;51.442;7.016;2023-11-21T15:34:45;10.60;99.90
1429;DHT22;708;51.442;7.016;2023-11-21T15:37:13;10.50;99.90
1429;DHT22;708;51.442;7.016;2023-11-21T15:39:40;10.60;99.90
1429;DHT22;708;51.442;7.016;2023-11-21T15:42:12;10.60;99.90
1429;DHT22;708;51.442;7.016;2023-11-21T15:44:41;10.50;99.90
1429;DHT22;708;51.442;7.016;2023-11-21T15:47:07;10.50;99.90
1429;DHT22;708;51.442;7.016;2023-11-21T15:49:35;10.40;99.90
1429;DHT22;708;51.442;7.016;2023-11-21T15:52:02;10.40;99.90
1429;DHT22;708;51.442;7.016;2023-11-21T15:54:30;10.40;99.90
1429;DHT22;708;51.442;7.016;2023-11-21T15:56:57;10.40;99.90
1429;DHT22;708;51.442;7.016;2023-11-21T15:59:27;10.40;99.90
1429;DHT22;708;51.442;7.016;2023-11-21T16:02:14;10.40;99.90
1429;DHT22;708;51.442;7.016;2023-11-21T16:04:57;10.40;99.90
1429;DHT22;708;51.442;7.016;2023-11-21T16:07:25;10.40;99.90
1429;DHT22;708;51.442;7.016;2023-11-21T16:09:54;10.30;99.90
1429;DHT22;708;51.442;7.016;2023-11-21T16:12:28;10.30;99.90
1429;DHT22;708;51.442;7.016;2023-11-21T16:15:05;10.20;99.90
1429;DHT22;708;51.442;7.016;2023-11-21T16:17:33;10.20;99.90
1429;DHT22;708;51.442;7.016;2023-11-21T16:20:01;10.10;99.90
1429;DHT22;708;51.442;7.016;2023-11-21T16:22:34;10.10;99.90
1429;DHT22;708;51.442;7.016;2023-11-21T16:25:04;10.00;99.90
1429;DHT22;708;51.442;7.016;2023-11-21T16:27:35;9.90;99.90